📊 Raw Sensor Data
Showing records 49676 to 49700 of 85,123 total
| ID | Distance (ft) | Battery V | Battery A | Int Temp (°F) | Int Humid (%) | Ext Temp (°F) | Solar V | RSSI | SNR | Time Stamp |
|---|---|---|---|---|---|---|---|---|---|---|
| 35460 | -- | 4.01 | -5 | 52 | 41 | 53 | 0.00 | -79 | 8 | 03/19/2025 08:30 PM |
| 35459 | -- | 4.06 | -5 | 53 | 41 | 54 | 0.00 | -79 | 8 | 03/19/2025 08:15 PM |
| 35458 | -- | 4.01 | -5 | 53 | 41 | 54 | 0.10 | -79 | 8 | 03/19/2025 08:00 PM |
| 35457 | -- | 4.01 | -5 | 53 | 41 | 54 | 0.00 | -78 | 7 | 03/19/2025 07:45 PM |
| 35456 | 15.2 | 4.01 | -5 | 53 | 42 | 54 | 0.10 | -79 | 8 | 03/19/2025 07:30 PM |
| 35455 | -- | 4.07 | -5 | 54 | 42 | 53 | 0.70 | -77 | 8 | 03/19/2025 07:15 PM |
| 35454 | 15.2 | 4.06 | -9 | 55 | 43 | 54 | 4.00 | -78 | 7 | 03/19/2025 07:00 PM |
| 35453 | 15.2 | 4.08 | 0 | 56 | 43 | 55 | 4.50 | -78 | 7 | 03/19/2025 06:45 PM |
| 35452 | -- | 4.10 | 8 | 58 | 43 | 56 | 4.50 | -79 | 8 | 03/19/2025 06:30 PM |
| 35451 | -- | 4.11 | 0 | 60 | 42 | 57 | 4.50 | -78 | 7 | 03/19/2025 06:15 PM |
| 35450 | 15.2 | 4.13 | 9 | 61 | 42 | 58 | 4.50 | -79 | 8 | 03/19/2025 06:00 PM |
| 35449 | 15.1 | 4.10 | 5 | 62 | 42 | 59 | 4.50 | -79 | 8 | 03/19/2025 05:45 PM |
| 35448 | -- | 4.10 | 23 | 63 | 42 | 59 | 4.50 | -78 | 7 | 03/19/2025 05:30 PM |
| 35447 | -- | 4.10 | 15 | 64 | 41 | 61 | 4.50 | -79 | 7 | 03/19/2025 05:15 PM |
| 35446 | -- | 4.10 | 36 | 64 | 42 | 62 | 4.50 | -78 | 7 | 03/19/2025 05:00 PM |
| 35445 | 15.2 | 4.12 | 7 | 63 | 43 | 62 | 4.50 | -79 | 7 | 03/19/2025 04:45 PM |
| 35444 | -- | 4.09 | 38 | 65 | 43 | 63 | 4.50 | -78 | 7 | 03/19/2025 04:31 PM |
| 35443 | -- | 4.11 | 43 | 66 | 42 | 64 | 4.50 | -80 | 7 | 03/19/2025 04:15 PM |
| 35442 | 15.2 | 4.03 | 0 | 69 | 41 | 63 | 5.10 | -79 | 8 | 03/19/2025 04:00 PM |
| 35441 | -- | 4.03 | 0 | 71 | 40 | 65 | 5.10 | -78 | 9 | 03/19/2025 03:45 PM |
| 35440 | 15.2 | 4.03 | 0 | 71 | 40 | 67 | 5.10 | -78 | 8 | 03/19/2025 03:30 PM |
| 35439 | 15.4 | 4.03 | 0 | 73 | 37 | 65 | 5.10 | -77 | 7 | 03/19/2025 03:15 PM |
| 35438 | 15.2 | 4.03 | 0 | 69 | 39 | 66 | 5.10 | -79 | 7 | 03/19/2025 02:45 PM |
| 35437 | 15.3 | 4.03 | 0 | 69 | 38 | 64 | 5.10 | -78 | 7 | 03/19/2025 02:30 PM |
| 35436 | -- | 4.03 | 0 | 71 | 37 | 64 | 5.10 | -77 | 9 | 03/19/2025 02:15 PM |